Contact, Nevada
Current Conditions -  °F | °C
As of 7:53 PM on Wednesday 26 Nov 2014 (Local Time) from KTWF Reporting Station
Clear Clear  
Wind Chill: 52°   Ceiling: Unl
Heat Index: 52°   Visibility: 10mi
Dew Point: 30°   Wind: 15mph
Humidity: 43%   Direction: 180°S
Pressure: 30.24"   Gusts: NA
Location:  41.8136°N, 115.084°W
Report Text: KTWF 270353Z 18013KT 10SM CLR 11/M01 A3024 RMK AO2 SLP218 T01111011
Loading
Personal Weather Stations






























Interactive Weather Map New forecast layout! Learn more

10-Day Weather Forecast

Advertisements
Track Severe Weather on mobile